sensor_id;sensor_type;location;lat;lon;timestamp;temperature;humidity
7399;DHT22;3740;50.700;7.184;2022-11-21T00:00:29;8.70;99.90
7399;DHT22;3740;50.700;7.184;2022-11-21T00:03:00;8.70;99.90
7399;DHT22;3740;50.700;7.184;2022-11-21T00:05:29;8.60;99.90
7399;DHT22;3740;50.700;7.184;2022-11-21T00:07:55;8.60;99.90
7399;DHT22;3740;50.700;7.184;2022-11-21T00:10:23;8.70;99.90
7399;DHT22;3740;50.700;7.184;2022-11-21T00:12:56;8.70;99.90
7399;DHT22;3740;50.700;7.184;2022-11-21T00:15:23;8.60;99.90
7399;DHT22;3740;50.700;7.184;2022-11-21T00:17:49;8.60;99.90
7399;DHT22;3740;50.700;7.184;2022-11-21T00:20:15;8.60;99.90
7399;DHT22;3740;50.700;7.184;2022-11-21T00:22:41;8.70;99.90
7399;DHT22;3740;50.700;7.184;2022-11-21T00:25:09;8.50;99.90
7399;DHT22;3740;50.700;7.184;2022-11-21T00:27:36;8.50;99.90
7399;DHT22;3740;50.700;7.184;2022-11-21T00:30:02;8.50;99.90
7399;DHT22;3740;50.700;7.184;2022-11-21T00:32:28;8.50;99.90
7399;DHT22;3740;50.700;7.184;2022-11-21T00:34:53;8.50;99.90
7399;DHT22;3740;50.700;7.184;2022-11-21T00:37:19;8.60;99.90
7399;DHT22;3740;50.700;7.184;2022-11-21T00:39:44;8.60;99.90
7399;DHT22;3740;50.700;7.184;2022-11-21T00:42:10;8.70;99.90
7399;DHT22;3740;50.700;7.184;2022-11-21T00:44:35;8.80;99.90
7399;DHT22;3740;50.700;7.184;2022-11-21T00:47:01;8.80;99.90
7399;DHT22;3740;50.700;7.184;2022-11-21T00:49:27;8.80;99.90
7399;DHT22;3740;50.700;7.184;2022-11-21T00:51:52;8.80;99.90
7399;DHT22;3740;50.700;7.184;2022-11-21T00:54:18;8.70;99.90
7399;DHT22;3740;50.700;7.184;2022-11-21T00:56:43;8.70;99.90
7399;DHT22;3740;50.700;7.184;2022-11-21T00:59:09;8.70;99.90
7399;DHT22;3740;50.700;7.184;2022-11-21T01:01:35;8.80;99.90
7399;DHT22;3740;50.700;7.184;2022-11-21T01:04:01;8.80;99.90
7399;DHT22;3740;50.700;7.184;2022-11-21T01:06:26;8.80;99.90
7399;DHT22;3740;50.700;7.184;2022-11-21T01:08:52;8.80;99.90
7399;DHT22;3740;50.700;7.184;2022-11-21T01:11:19;8.90;99.90
7399;DHT22;3740;50.700;7.184;2022-11-21T01:13:46;8.80;99.90
7399;DHT22;3740;50.700;7.184;2022-11-21T01:16:16;8.70;99.90
7399;DHT22;3740;50.700;7.184;2022-11-21T01:18:43;8.70;99.90
7399;DHT22;3740;50.700;7.184;2022-11-21T01:21:15;8.60;99.90
7399;DHT22;3740;50.700;7.184;2022-11-21T01:23:41;8.60;99.90
7399;DHT22;3740;50.700;7.184;2022-11-21T01:26:11;8.60;99.90
7399;DHT22;3740;50.700;7.184;2022-11-21T01:28:37;8.50;99.90
7399;DHT22;3740;50.700;7.184;2022-11-21T01:31:14;8.50;99.90
7399;DHT22;3740;50.700;7.184;2022-11-21T01:33:40;8.50;99.90
7399;DHT22;3740;50.700;7.184;2022-11-21T01:38:47;8.50;99.90
7399;DHT22;3740;50.700;7.184;2022-11-21T01:41:15;8.50;99.90
7399;DHT22;3740;50.700;7.184;2022-11-21T01:43:41;8.50;99.90
7399;DHT22;3740;50.700;7.184;2022-11-21T01:51:06;8.50;99.90
7399;DHT22;3740;50.700;7.184;2022-11-21T01:53:35;8.50;99.90
7399;DHT22;3740;50.700;7.184;2022-11-21T01:56:01;8.60;99.90
7399;DHT22;3740;50.700;7.184;2022-11-21T01:58:28;8.70;99.90
7399;DHT22;3740;50.700;7.184;2022-11-21T02:00:55;8.60;99.90
7399;DHT22;3740;50.700;7.184;2022-11-21T02:03:23;8.60;99.90
7399;DHT22;3740;50.700;7.184;2022-11-21T02:05:53;8.50;99.90
7399;DHT22;3740;50.700;7.184;2022-11-21T02:08:20;8.50;99.90
7399;DHT22;3740;50.700;7.184;2022-11-21T02:11:15;8.40;99.90
7399;DHT22;3740;50.700;7.184;2022-11-21T02:13:41;8.40;99.90
7399;DHT22;3740;50.700;7.184;2022-11-21T02:16:08;8.30;99.90
7399;DHT22;3740;50.700;7.184;2022-11-21T02:18:33;8.40;99.90
7399;DHT22;3740;50.700;7.184;2022-11-21T02:21:18;8.50;99.90
7399;DHT22;3740;50.700;7.184;2022-11-21T02:24:11;8.60;99.90
7399;DHT22;3740;50.700;7.184;2022-11-21T02:26:38;8.70;99.90
7399;DHT22;3740;50.700;7.184;2022-11-21T02:29:03;8.60;99.90
7399;DHT22;3740;50.700;7.184;2022-11-21T02:31:30;8.50;99.90
7399;DHT22;3740;50.700;7.184;2022-11-21T02:33:55;8.50;99.90
7399;DHT22;3740;50.700;7.184;2022-11-21T02:36:41;8.50;99.90
7399;DHT22;3740;50.700;7.184;2022-11-21T02:39:11;8.30;99.90
7399;DHT22;3740;50.700;7.184;2022-11-21T02:41:45;8.30;99.90
7399;DHT22;3740;50.700;7.184;2022-11-21T02:44:28;8.30;99.90
7399;DHT22;3740;50.700;7.184;2022-11-21T02:46:54;8.20;99.90
7399;DHT22;3740;50.700;7.184;2022-11-21T02:49:29;8.20;99.90
7399;DHT22;3740;50.700;7.184;2022-11-21T02:51:56;8.20;99.90
7399;DHT22;3740;50.700;7.184;2022-11-21T02:54:21;8.20;99.90
7399;DHT22;3740;50.700;7.184;2022-11-21T02:56:47;8.20;99.90
7399;DHT22;3740;50.700;7.184;2022-11-21T02:59:12;8.30;99.90
7399;DHT22;3740;50.700;7.184;2022-11-21T03:01:38;8.40;99.90
7399;DHT22;3740;50.700;7.184;2022-11-21T03:04:03;8.50;99.90
7399;DHT22;3740;50.700;7.184;2022-11-21T03:06:31;8.60;99.90
7399;DHT22;3740;50.700;7.184;2022-11-21T03:08:56;8.60;99.90
7399;DHT22;3740;50.700;7.184;2022-11-21T03:11:22;8.50;99.90
7399;DHT22;3740;50.700;7.184;2022-11-21T03:13:48;8.50;99.90
7399;DHT22;3740;50.700;7.184;2022-11-21T03:16:13;8.40;99.90
7399;DHT22;3740;50.700;7.184;2022-11-21T03:18:39;8.40;99.90
7399;DHT22;3740;50.700;7.184;2022-11-21T03:21:04;8.30;99.90
7399;DHT22;3740;50.700;7.184;2022-11-21T03:23:30;8.30;99.90
7399;DHT22;3740;50.700;7.184;2022-11-21T03:25:57;8.20;99.90
7399;DHT22;3740;50.700;7.184;2022-11-21T03:28:23;8.20;99.90
7399;DHT22;3740;50.700;7.184;2022-11-21T03:30:49;8.10;99.90
7399;DHT22;3740;50.700;7.184;2022-11-21T03:33:14;8.20;99.90
7399;DHT22;3740;50.700;7.184;2022-11-21T03:35:40;8.30;99.90
7399;DHT22;3740;50.700;7.184;2022-11-21T03:38:07;8.30;99.90
7399;DHT22;3740;50.700;7.184;2022-11-21T03:40:32;8.40;99.90
7399;DHT22;3740;50.700;7.184;2022-11-21T03:43:06;8.50;99.90
7399;DHT22;3740;50.700;7.184;2022-11-21T03:45:32;8.70;99.90
7399;DHT22;3740;50.700;7.184;2022-11-21T03:47:58;8.60;99.90
7399;DHT22;3740;50.700;7.184;2022-11-21T03:50:23;8.40;99.90
7399;DHT22;3740;50.700;7.184;2022-11-21T03:52:49;8.30;99.90
7399;DHT22;3740;50.700;7.184;2022-11-21T03:55:15;8.20;99.90
7399;DHT22;3740;50.700;7.184;2022-11-21T03:57:40;8.20;99.90
7399;DHT22;3740;50.700;7.184;2022-11-21T04:00:07;8.20;99.90
7399;DHT22;3740;50.700;7.184;2022-11-21T04:02:33;8.30;99.90
7399;DHT22;3740;50.700;7.184;2022-11-21T04:04:58;8.30;99.90
7399;DHT22;3740;50.700;7.184;2022-11-21T04:07:25;8.30;99.90
7399;DHT22;3740;50.700;7.184;2022-11-21T04:09:51;8.30;99.90
7399;DHT22;3740;50.700;7.184;2022-11-21T04:12:16;8.30;99.90
7399;DHT22;3740;50.700;7.184;2022-11-21T04:14:42;8.50;99.90
7399;DHT22;3740;50.700;7.184;2022-11-21T04:17:07;8.80;99.90
7399;DHT22;3740;50.700;7.184;2022-11-21T04:19:33;8.90;99.90
7399;DHT22;3740;50.700;7.184;2022-11-21T04:21:58;8.90;99.90
7399;DHT22;3740;50.700;7.184;2022-11-21T04:24:24;9.00;99.90
7399;DHT22;3740;50.700;7.184;2022-11-21T04:26:49;8.90;99.90
7399;DHT22;3740;50.700;7.184;2022-11-21T04:29:15;8.70;99.90
7399;DHT22;3740;50.700;7.184;2022-11-21T04:31:41;8.60;99.90
7399;DHT22;3740;50.700;7.184;2022-11-21T04:34:06;8.60;99.90
7399;DHT22;3740;50.700;7.184;2022-11-21T04:36:36;8.50;99.90
7399;DHT22;3740;50.700;7.184;2022-11-21T04:39:03;8.40;99.90
7399;DHT22;3740;50.700;7.184;2022-11-21T04:41:29;8.30;99.90
7399;DHT22;3740;50.700;7.184;2022-11-21T04:43:55;8.40;99.90
7399;DHT22;3740;50.700;7.184;2022-11-21T04:46:21;8.60;99.90
7399;DHT22;3740;50.700;7.184;2022-11-21T04:48:46;8.50;99.90
7399;DHT22;3740;50.700;7.184;2022-11-21T04:51:12;8.70;99.90
7399;DHT22;3740;50.700;7.184;2022-11-21T04:53:38;8.80;99.90
7399;DHT22;3740;50.700;7.184;2022-11-21T04:56:05;8.80;99.90
7399;DHT22;3740;50.700;7.184;2022-11-21T04:58:31;8.80;99.90
7399;DHT22;3740;50.700;7.184;2022-11-21T05:00:57;8.80;99.90
7399;DHT22;3740;50.700;7.184;2022-11-21T05:03:22;8.60;99.90
7399;DHT22;3740;50.700;7.184;2022-11-21T05:05:48;8.50;99.90
7399;DHT22;3740;50.700;7.184;2022-11-21T05:08:13;8.50;99.90
7399;DHT22;3740;50.700;7.184;2022-11-21T05:10:39;8.60;99.90
7399;DHT22;3740;50.700;7.184;2022-11-21T05:13:23;8.50;99.90
7399;DHT22;3740;50.700;7.184;2022-11-21T05:15:55;8.50;99.90
7399;DHT22;3740;50.700;7.184;2022-11-21T05:18:21;8.70;99.90
7399;DHT22;3740;50.700;7.184;2022-11-21T05:20:47;8.70;99.90
7399;DHT22;3740;50.700;7.184;2022-11-21T05:23:13;8.70;99.90
7399;DHT22;3740;50.700;7.184;2022-11-21T05:25:39;8.70;99.90
7399;DHT22;3740;50.700;7.184;2022-11-21T05:28:05;8.80;99.90
7399;DHT22;3740;50.700;7.184;2022-11-21T05:30:31;9.00;99.90
7399;DHT22;3740;50.700;7.184;2022-11-21T05:32:57;9.20;99.90
7399;DHT22;3740;50.700;7.184;2022-11-21T05:35:22;9.40;99.90
7399;DHT22;3740;50.700;7.184;2022-11-21T05:37:53;9.50;99.90
7399;DHT22;3740;50.700;7.184;2022-11-21T05:40:19;9.60;99.90
7399;DHT22;3740;50.700;7.184;2022-11-21T05:42:45;9.50;99.90
7399;DHT22;3740;50.700;7.184;2022-11-21T05:45:29;9.40;99.90
7399;DHT22;3740;50.700;7.184;2022-11-21T05:47:55;9.40;99.90
7399;DHT22;3740;50.700;7.184;2022-11-21T05:50:21;9.50;99.90
7399;DHT22;3740;50.700;7.184;2022-11-21T05:52:46;9.60;99.90
7399;DHT22;3740;50.700;7.184;2022-11-21T05:55:12;9.60;99.90
7399;DHT22;3740;50.700;7.184;2022-11-21T05:57:38;9.70;99.90
7399;DHT22;3740;50.700;7.184;2022-11-21T06:00:04;9.60;99.90
7399;DHT22;3740;50.700;7.184;2022-11-21T06:02:30;9.40;99.90
7399;DHT22;3740;50.700;7.184;2022-11-21T06:05:14;9.30;99.90
7399;DHT22;3740;50.700;7.184;2022-11-21T06:07:39;9.20;99.90
7399;DHT22;3740;50.700;7.184;2022-11-21T06:10:07;9.20;99.90
7399;DHT22;3740;50.700;7.184;2022-11-21T06:12:32;9.20;99.90
7399;DHT22;3740;50.700;7.184;2022-11-21T06:14:58;9.30;99.90
7399;DHT22;3740;50.700;7.184;2022-11-21T06:17:23;9.40;99.90
7399;DHT22;3740;50.700;7.184;2022-11-21T06:19:49;9.50;99.90
7399;DHT22;3740;50.700;7.184;2022-11-21T06:22:14;9.50;99.90
7399;DHT22;3740;50.700;7.184;2022-11-21T06:24:40;9.40;99.90
7399;DHT22;3740;50.700;7.184;2022-11-21T06:27:05;9.30;99.90
7399;DHT22;3740;50.700;7.184;2022-11-21T06:29:31;9.30;99.90
7399;DHT22;3740;50.700;7.184;2022-11-21T06:31:56;9.30;99.90
7399;DHT22;3740;50.700;7.184;2022-11-21T06:34:25;9.20;99.90
7399;DHT22;3740;50.700;7.184;2022-11-21T06:36:51;9.20;99.90
7399;DHT22;3740;50.700;7.184;2022-11-21T06:39:16;9.10;99.90
7399;DHT22;3740;50.700;7.184;2022-11-21T06:41:42;9.10;99.90
7399;DHT22;3740;50.700;7.184;2022-11-21T06:44:07;9.00;99.90
7399;DHT22;3740;50.700;7.184;2022-11-21T06:46:33;8.90;99.90
7399;DHT22;3740;50.700;7.184;2022-11-21T06:48:58;9.00;99.90
7399;DHT22;3740;50.700;7.184;2022-11-21T06:51:24;9.00;99.90
7399;DHT22;3740;50.700;7.184;2022-11-21T06:53:57;9.00;99.90
7399;DHT22;3740;50.700;7.184;2022-11-21T06:56:24;9.20;99.90
7399;DHT22;3740;50.700;7.184;2022-11-21T06:58:51;9.30;99.90
7399;DHT22;3740;50.700;7.184;2022-11-21T07:01:16;9.20;99.90
7399;DHT22;3740;50.700;7.184;2022-11-21T07:03:42;9.30;99.90
7399;DHT22;3740;50.700;7.184;2022-11-21T07:06:08;9.30;99.90
7399;DHT22;3740;50.700;7.184;2022-11-21T07:08:34;9.30;99.90
7399;DHT22;3740;50.700;7.184;2022-11-21T07:11:05;9.20;99.90
7399;DHT22;3740;50.700;7.184;2022-11-21T07:13:31;9.10;99.90
7399;DHT22;3740;50.700;7.184;2022-11-21T07:16:05;9.00;99.90
7399;DHT22;3740;50.700;7.184;2022-11-21T07:18:32;9.10;99.90
7399;DHT22;3740;50.700;7.184;2022-11-21T07:21:05;9.20;99.90
7399;DHT22;3740;50.700;7.184;2022-11-21T07:23:32;9.30;99.90
7399;DHT22;3740;50.700;7.184;2022-11-21T07:26:05;9.20;99.90
7399;DHT22;3740;50.700;7.184;2022-11-21T07:28:32;9.00;99.90
7399;DHT22;3740;50.700;7.184;2022-11-21T07:30:58;8.90;99.90
7399;DHT22;3740;50.700;7.184;2022-11-21T07:33:25;8.90;99.90
7399;DHT22;3740;50.700;7.184;2022-11-21T07:35:51;8.90;99.90
7399;DHT22;3740;50.700;7.184;2022-11-21T07:38:16;8.90;99.90
7399;DHT22;3740;50.700;7.184;2022-11-21T07:40:42;9.00;99.90
7399;DHT22;3740;50.700;7.184;2022-11-21T07:43:09;9.00;99.90
7399;DHT22;3740;50.700;7.184;2022-11-21T07:45:35;9.10;99.90
7399;DHT22;3740;50.700;7.184;2022-11-21T07:48:03;9.20;99.90
7399;DHT22;3740;50.700;7.184;2022-11-21T07:50:30;9.20;99.90
7399;DHT22;3740;50.700;7.184;2022-11-21T07:53:00;9.20;99.90
7399;DHT22;3740;50.700;7.184;2022-11-21T07:55:26;9.20;99.90
7399;DHT22;3740;50.700;7.184;2022-11-21T07:58:04;9.10;99.90
7399;DHT22;3740;50.700;7.184;2022-11-21T08:00:31;9.10;99.90
7399;DHT22;3740;50.700;7.184;2022-11-21T08:02:57;9.10;99.90
7399;DHT22;3740;50.700;7.184;2022-11-21T08:05:23;9.10;99.90
7399;DHT22;3740;50.700;7.184;2022-11-21T08:07:49;9.10;99.90
7399;DHT22;3740;50.700;7.184;2022-11-21T08:10:15;9.10;99.90
7399;DHT22;3740;50.700;7.184;2022-11-21T08:12:43;9.10;99.90
7399;DHT22;3740;50.700;7.184;2022-11-21T08:15:09;9.40;99.90
7399;DHT22;3740;50.700;7.184;2022-11-21T08:17:36;9.60;99.90
7399;DHT22;3740;50.700;7.184;2022-11-21T08:20:04;9.60;99.90
7399;DHT22;3740;50.700;7.184;2022-11-21T08:22:31;9.60;99.90
7399;DHT22;3740;50.700;7.184;2022-11-21T08:24:57;9.50;99.90
7399;DHT22;3740;50.700;7.184;2022-11-21T08:27:23;9.50;99.90
7399;DHT22;3740;50.700;7.184;2022-11-21T08:29:49;9.40;99.90
7399;DHT22;3740;50.700;7.184;2022-11-21T08:32:15;9.40;99.90
7399;DHT22;3740;50.700;7.184;2022-11-21T08:34:42;9.40;99.90
7399;DHT22;3740;50.700;7.184;2022-11-21T08:37:07;9.40;99.90
7399;DHT22;3740;50.700;7.184;2022-11-21T08:39:33;9.40;99.90
7399;DHT22;3740;50.700;7.184;2022-11-21T08:41:59;9.40;99.90
7399;DHT22;3740;50.700;7.184;2022-11-21T08:44:31;9.40;99.90
7399;DHT22;3740;50.700;7.184;2022-11-21T08:46:58;9.50;99.90
7399;DHT22;3740;50.700;7.184;2022-11-21T08:49:24;9.40;99.90
7399;DHT22;3740;50.700;7.184;2022-11-21T08:51:50;9.30;99.90
7399;DHT22;3740;50.700;7.184;2022-11-21T08:54:17;9.20;99.90
7399;DHT22;3740;50.700;7.184;2022-11-21T08:56:43;9.20;99.90
7399;DHT22;3740;50.700;7.184;2022-11-21T08:59:09;9.20;99.90
7399;DHT22;3740;50.700;7.184;2022-11-21T09:01:36;9.20;99.90
7399;DHT22;3740;50.700;7.184;2022-11-21T09:04:02;9.10;99.90
7399;DHT22;3740;50.700;7.184;2022-11-21T09:06:27;9.10;99.90
7399;DHT22;3740;50.700;7.184;2022-11-21T09:11:26;9.30;99.90
7399;DHT22;3740;50.700;7.184;2022-11-21T09:13:52;9.30;99.90
7399;DHT22;3740;50.700;7.184;2022-11-21T09:16:37;9.50;99.90
7399;DHT22;3740;50.700;7.184;2022-11-21T09:19:22;9.60;99.90
7399;DHT22;3740;50.700;7.184;2022-11-21T09:21:49;9.90;99.90
7399;DHT22;3740;50.700;7.184;2022-11-21T09:24:15;10.00;99.90
7399;DHT22;3740;50.700;7.184;2022-11-21T09:26:41;10.10;99.90
7399;DHT22;3740;50.700;7.184;2022-11-21T09:29:06;10.10;99.90
7399;DHT22;3740;50.700;7.184;2022-11-21T09:31:36;10.00;99.90
7399;DHT22;3740;50.700;7.184;2022-11-21T09:34:01;9.80;99.90
7399;DHT22;3740;50.700;7.184;2022-11-21T09:36:27;9.80;99.90
7399;DHT22;3740;50.700;7.184;2022-11-21T09:39:03;9.80;99.90
7399;DHT22;3740;50.700;7.184;2022-11-21T09:44:45;10.20;99.90
7399;DHT22;3740;50.700;7.184;2022-11-21T09:47:40;10.40;99.90
7399;DHT22;3740;50.700;7.184;2022-11-21T09:57:49;12.70;99.90
7399;DHT22;3740;50.700;7.184;2022-11-21T10:00:20;13.20;99.90
7399;DHT22;3740;50.700;7.184;2022-11-21T10:02:46;14.00;99.90
7399;DHT22;3740;50.700;7.184;2022-11-21T10:05:12;15.00;99.90
7399;DHT22;3740;50.700;7.184;2022-11-21T10:07:39;15.60;99.90
7399;DHT22;3740;50.700;7.184;2022-11-21T10:10:19;16.30;99.90
7399;DHT22;3740;50.700;7.184;2022-11-21T10:13:01;16.90;99.90
7399;DHT22;3740;50.700;7.184;2022-11-21T10:15:56;17.50;99.90
7399;DHT22;3740;50.700;7.184;2022-11-21T10:23:53;15.00;99.90
7399;DHT22;3740;50.700;7.184;2022-11-21T10:26:36;13.70;99.90
7399;DHT22;3740;50.700;7.184;2022-11-21T10:29:26;12.90;99.90
7399;DHT22;3740;50.700;7.184;2022-11-21T10:31:55;12.50;99.90
7399;DHT22;3740;50.700;7.184;2022-11-21T10:34:25;12.30;99.90
7399;DHT22;3740;50.700;7.184;2022-11-21T10:36:57;12.30;99.90
7399;DHT22;3740;50.700;7.184;2022-11-21T10:39:36;12.20;99.90
7399;DHT22;3740;50.700;7.184;2022-11-21T10:44:46;11.90;99.90
7399;DHT22;3740;50.700;7.184;2022-11-21T10:47:33;12.90;99.90
7399;DHT22;3740;50.700;7.184;2022-11-21T10:52:35;14.20;99.90
7399;DHT22;3740;50.700;7.184;2022-11-21T10:55:06;15.40;99.90
7399;DHT22;3740;50.700;7.184;2022-11-21T10:57:39;15.90;99.90
7399;DHT22;3740;50.700;7.184;2022-11-21T11:02:38;16.00;99.10
7399;DHT22;3740;50.700;7.184;2022-11-21T11:05:19;16.00;99.60
7399;DHT22;3740;50.700;7.184;2022-11-21T11:10:24;14.40;99.40
7399;DHT22;3740;50.700;7.184;2022-11-21T11:12:50;13.90;99.90
7399;DHT22;3740;50.700;7.184;2022-11-21T11:15:36;14.50;99.90
7399;DHT22;3740;50.700;7.184;2022-11-21T11:18:05;15.40;99.90
7399;DHT22;3740;50.700;7.184;2022-11-21T11:20:35;16.20;99.00
7399;DHT22;3740;50.700;7.184;2022-11-21T11:25:58;16.90;96.60
7399;DHT22;3740;50.700;7.184;2022-11-21T11:28:26;16.80;96.60
7399;DHT22;3740;50.700;7.184;2022-11-21T11:30:57;15.90;97.60
7399;DHT22;3740;50.700;7.184;2022-11-21T11:33:33;15.50;98.60
7399;DHT22;3740;50.700;7.184;2022-11-21T11:38:34;15.60;99.30
7399;DHT22;3740;50.700;7.184;2022-11-21T11:41:07;15.50;97.70
7399;DHT22;3740;50.700;7.184;2022-11-21T11:47:00;14.50;98.70
7399;DHT22;3740;50.700;7.184;2022-11-21T11:50:07;14.20;98.20
7399;DHT22;3740;50.700;7.184;2022-11-21T11:52:45;14.00;99.10
7399;DHT22;3740;50.700;7.184;2022-11-21T11:55:42;14.20;99.30
7399;DHT22;3740;50.700;7.184;2022-11-21T11:58:26;14.10;99.10
7399;DHT22;3740;50.700;7.184;2022-11-21T12:01:09;13.80;98.70
7399;DHT22;3740;50.700;7.184;2022-11-21T12:03:55;13.90;99.70
7399;DHT22;3740;50.700;7.184;2022-11-21T12:06:37;13.90;99.90
7399;DHT22;3740;50.700;7.184;2022-11-21T12:09:15;13.80;98.60
7399;DHT22;3740;50.700;7.184;2022-11-21T12:11:53;13.60;99.10
7399;DHT22;3740;50.700;7.184;2022-11-21T12:14:59;13.90;98.60
7399;DHT22;3740;50.700;7.184;2022-11-21T12:20:35;13.70;98.50
7399;DHT22;3740;50.700;7.184;2022-11-21T12:23:06;13.60;99.10
7399;DHT22;3740;50.700;7.184;2022-11-21T12:25:37;13.80;98.70
7399;DHT22;3740;50.700;7.184;2022-11-21T12:28:15;13.90;98.40
7399;DHT22;3740;50.700;7.184;2022-11-21T12:31:42;13.80;98.50
7399;DHT22;3740;50.700;7.184;2022-11-21T12:33:57;13.80;98.80
7399;DHT22;3740;50.700;7.184;2022-11-21T12:36:47;13.90;98.10
7399;DHT22;3740;50.700;7.184;2022-11-21T12:45:33;13.60;98.40
7399;DHT22;3740;50.700;7.184;2022-11-21T12:48:11;13.70;98.60
7399;DHT22;3740;50.700;7.184;2022-11-21T12:54:29;13.60;98.90
7399;DHT22;3740;50.700;7.184;2022-11-21T12:59:44;13.60;98.80
7399;DHT22;3740;50.700;7.184;2022-11-21T13:05:25;13.30;99.00
7399;DHT22;3740;50.700;7.184;2022-11-21T13:07:58;13.30;99.00
7399;DHT22;3740;50.700;7.184;2022-11-21T13:10:25;13.30;99.70
7399;DHT22;3740;50.700;7.184;2022-11-21T13:15:37;13.30;99.60
7399;DHT22;3740;50.700;7.184;2022-11-21T13:18:18;13.30;99.60
7399;DHT22;3740;50.700;7.184;2022-11-21T13:20:48;12.90;99.90
7399;DHT22;3740;50.700;7.184;2022-11-21T13:23:39;12.60;99.90
7399;DHT22;3740;50.700;7.184;2022-11-21T13:26:45;12.40;99.90
7399;DHT22;3740;50.700;7.184;2022-11-21T13:29:12;12.20;99.90
7399;DHT22;3740;50.700;7.184;2022-11-21T13:31:39;12.10;99.90
7399;DHT22;3740;50.700;7.184;2022-11-21T13:36:50;12.00;99.90
7399;DHT22;3740;50.700;7.184;2022-11-21T13:49:48;12.10;99.90
7399;DHT22;3740;50.700;7.184;2022-11-21T13:57:55;11.80;99.90
7399;DHT22;3740;50.700;7.184;2022-11-21T14:00:31;11.70;99.90
7399;DHT22;3740;50.700;7.184;2022-11-21T14:03:26;11.40;99.90
7399;DHT22;3740;50.700;7.184;2022-11-21T14:06:13;11.40;99.90
7399;DHT22;3740;50.700;7.184;2022-11-21T14:08:41;11.50;99.90
7399;DHT22;3740;50.700;7.184;2022-11-21T14:11:19;11.50;99.90
7399;DHT22;3740;50.700;7.184;2022-11-21T14:13:47;11.60;99.90
7399;DHT22;3740;50.700;7.184;2022-11-21T14:18:52;11.70;99.90
7399;DHT22;3740;50.700;7.184;2022-11-21T14:21:29;11.40;99.90
7399;DHT22;3740;50.700;7.184;2022-11-21T14:23:57;11.20;99.90
7399;DHT22;3740;50.700;7.184;2022-11-21T14:26:24;11.10;99.90
7399;DHT22;3740;50.700;7.184;2022-11-21T14:28:50;11.30;99.90
7399;DHT22;3740;50.700;7.184;2022-11-21T14:31:17;11.40;99.90
7399;DHT22;3740;50.700;7.184;2022-11-21T14:33:47;11.30;99.90
7399;DHT22;3740;50.700;7.184;2022-11-21T14:36:19;11.30;99.90
7399;DHT22;3740;50.700;7.184;2022-11-21T14:38:50;11.30;99.90
7399;DHT22;3740;50.700;7.184;2022-11-21T14:41:24;11.10;99.90
7399;DHT22;3740;50.700;7.184;2022-11-21T14:46:29;10.90;99.90
7399;DHT22;3740;50.700;7.184;2022-11-21T14:48:56;10.90;99.90
7399;DHT22;3740;50.700;7.184;2022-11-21T14:51:35;10.80;99.90
7399;DHT22;3740;50.700;7.184;2022-11-21T14:54:01;10.80;99.90
7399;DHT22;3740;50.700;7.184;2022-11-21T14:56:30;10.90;99.90
7399;DHT22;3740;50.700;7.184;2022-11-21T14:58:58;10.80;99.90
7399;DHT22;3740;50.700;7.184;2022-11-21T15:01:33;10.70;99.90
7399;DHT22;3740;50.700;7.184;2022-11-21T15:04:06;10.60;99.90
7399;DHT22;3740;50.700;7.184;2022-11-21T15:06:42;10.50;99.90
7399;DHT22;3740;50.700;7.184;2022-11-21T15:09:12;10.40;99.90
7399;DHT22;3740;50.700;7.184;2022-11-21T15:11:48;10.40;99.90
7399;DHT22;3740;50.700;7.184;2022-11-21T15:14:22;10.50;99.90
7399;DHT22;3740;50.700;7.184;2022-11-21T15:16:51;10.50;99.90
7399;DHT22;3740;50.700;7.184;2022-11-21T15:19:26;10.50;99.90
7399;DHT22;3740;50.700;7.184;2022-11-21T15:21:55;10.50;99.90
7399;DHT22;3740;50.700;7.184;2022-11-21T15:24:37;10.50;99.90
7399;DHT22;3740;50.700;7.184;2022-11-21T15:30:23;10.30;99.90
7399;DHT22;3740;50.700;7.184;2022-11-21T15:38:19;10.00;99.90
7399;DHT22;3740;50.700;7.184;2022-11-21T15:41:11;10.10;99.90
7399;DHT22;3740;50.700;7.184;2022-11-21T15:43:48;10.10;99.90
7399;DHT22;3740;50.700;7.184;2022-11-21T15:48:50;10.00;99.90
7399;DHT22;3740;50.700;7.184;2022-11-21T15:51:18;10.10;99.90
7399;DHT22;3740;50.700;7.184;2022-11-21T15:53:44;10.00;99.90
7399;DHT22;3740;50.700;7.184;2022-11-21T15:56:14;10.00;99.90
7399;DHT22;3740;50.700;7.184;2022-11-21T15:58:41;9.90;99.90
7399;DHT22;3740;50.700;7.184;2022-11-21T16:01:15;9.90;99.90
7399;DHT22;3740;50.700;7.184;2022-11-21T16:03:42;9.80;99.90
7399;DHT22;3740;50.700;7.184;2022-11-21T16:06:08;9.90;99.90
7399;DHT22;3740;50.700;7.184;2022-11-21T16:08:34;9.80;99.90
7399;DHT22;3740;50.700;7.184;2022-11-21T16:11:03;9.80;99.90
7399;DHT22;3740;50.700;7.184;2022-11-21T16:13:29;9.90;99.90
7399;DHT22;3740;50.700;7.184;2022-11-21T16:15:55;9.90;99.90
7399;DHT22;3740;50.700;7.184;2022-11-21T16:18:20;10.00;99.90
7399;DHT22;3740;50.700;7.184;2022-11-21T16:20:46;10.00;99.90
7399;DHT22;3740;50.700;7.184;2022-11-21T16:23:12;10.00;99.90
7399;DHT22;3740;50.700;7.184;2022-11-21T16:25:57;10.00;99.90
7399;DHT22;3740;50.700;7.184;2022-11-21T16:28:23;10.00;99.90
7399;DHT22;3740;50.700;7.184;2022-11-21T16:30:49;10.10;99.90
7399;DHT22;3740;50.700;7.184;2022-11-21T16:33:14;10.00;99.90
7399;DHT22;3740;50.700;7.184;2022-11-21T16:35:40;10.00;99.90
7399;DHT22;3740;50.700;7.184;2022-11-21T16:38:07;10.00;99.90
7399;DHT22;3740;50.700;7.184;2022-11-21T16:40:32;10.00;99.90
7399;DHT22;3740;50.700;7.184;2022-11-21T16:43:07;10.00;99.90
7399;DHT22;3740;50.700;7.184;2022-11-21T16:45:34;10.00;99.90
7399;DHT22;3740;50.700;7.184;2022-11-21T16:48:00;9.90;99.90
7399;DHT22;3740;50.700;7.184;2022-11-21T16:50:26;9.90;99.90
7399;DHT22;3740;50.700;7.184;2022-11-21T16:52:51;9.90;99.90
7399;DHT22;3740;50.700;7.184;2022-11-21T16:55:17;9.90;99.90
7399;DHT22;3740;50.700;7.184;2022-11-21T16:57:43;9.90;99.90
7399;DHT22;3740;50.700;7.184;2022-11-21T17:00:09;9.90;99.90
7399;DHT22;3740;50.700;7.184;2022-11-21T17:02:36;9.80;99.90
7399;DHT22;3740;50.700;7.184;2022-11-21T17:05:03;9.80;99.90
7399;DHT22;3740;50.700;7.184;2022-11-21T17:07:30;9.70;99.90
7399;DHT22;3740;50.700;7.184;2022-11-21T17:09:56;9.80;99.90
7399;DHT22;3740;50.700;7.184;2022-11-21T17:12:21;9.80;99.90
7399;DHT22;3740;50.700;7.184;2022-11-21T17:14:48;9.80;99.90
7399;DHT22;3740;50.700;7.184;2022-11-21T17:17:14;9.80;99.90
7399;DHT22;3740;50.700;7.184;2022-11-21T17:19:39;9.90;99.90
7399;DHT22;3740;50.700;7.184;2022-11-21T17:22:05;9.70;99.90
7399;DHT22;3740;50.700;7.184;2022-11-21T17:24:31;9.60;99.90
7399;DHT22;3740;50.700;7.184;2022-11-21T17:26:56;9.60;99.90
7399;DHT22;3740;50.700;7.184;2022-11-21T17:29:26;9.50;99.90
7399;DHT22;3740;50.700;7.184;2022-11-21T17:31:51;9.50;99.90
7399;DHT22;3740;50.700;7.184;2022-11-21T17:34:17;9.40;99.90
7399;DHT22;3740;50.700;7.184;2022-11-21T17:36:43;9.40;99.90
7399;DHT22;3740;50.700;7.184;2022-11-21T17:39:08;9.40;99.90
7399;DHT22;3740;50.700;7.184;2022-11-21T17:41:35;9.30;99.90
7399;DHT22;3740;50.700;7.184;2022-11-21T17:44:02;9.30;99.90
7399;DHT22;3740;50.700;7.184;2022-11-21T17:46:28;9.30;99.90
7399;DHT22;3740;50.700;7.184;2022-11-21T17:48:55;9.40;99.90
7399;DHT22;3740;50.700;7.184;2022-11-21T17:51:24;9.40;99.90
7399;DHT22;3740;50.700;7.184;2022-11-21T17:53:50;9.30;99.90
7399;DHT22;3740;50.700;7.184;2022-11-21T17:56:21;9.40;99.90
7399;DHT22;3740;50.700;7.184;2022-11-21T17:58:47;9.40;99.90
7399;DHT22;3740;50.700;7.184;2022-11-21T18:01:14;9.40;99.90
7399;DHT22;3740;50.700;7.184;2022-11-21T18:03:47;9.40;99.90
7399;DHT22;3740;50.700;7.184;2022-11-21T18:06:15;9.40;99.90
7399;DHT22;3740;50.700;7.184;2022-11-21T18:08:43;9.40;99.90